Time;durP1;ratioP1;P1;durP2;ratioP2;P2;SDS_P1;SDS_P2;PMS_P1;PMS_P2;Temp;Humidity;BMP_temperature;BMP_pressure;BME280_temperature;BME280_humidity;BME280_pressure;Samples;Min_cycle;Max_cycle;Signal;HPM_P1;HPM_P2
2024/01/11 00:00:36;;;;;;;156.87;43.87;;;;;;;-8.06;97.34;100950.13;4238103;28;20235;-65
2024/01/11 00:03:03;;;;;;;161.10;45.70;;;;;;;-8.07;97.54;100940.50;4236813;28;20237;-67
2024/01/11 00:05:29;;;;;;;159.67;46.77;;;;;;;-8.13;97.98;100938.84;4236215;28;23398;-65
2024/01/11 00:07:56;;;;;;;160.73;46.23;;;;;;;-8.12;97.58;100933.56;4234927;28;20248;-64
2024/01/11 00:10:22;;;;;;;143.33;42.27;;;;;;;-8.05;97.52;100936.13;4240803;28;20734;-64
2024/01/11 00:12:49;;;;;;;166.30;45.63;;;;;;;-8.06;97.30;100932.63;4229559;28;22860;-60
2024/01/11 00:15:16;;;;;;;151.37;39.27;;;;;;;-8.00;97.32;100919.44;4237163;28;20401;-64
2024/01/11 00:17:42;;;;;;;146.30;41.97;;;;;;;-7.96;96.93;100926.38;4238532;28;20247;-64
2024/01/11 00:20:10;;;;;;;150.60;39.43;;;;;;;-7.92;96.70;100929.81;4234392;28;20571;-66
2024/01/11 00:22:37;;;;;;;114.57;33.57;;;;;;;-7.98;97.33;100924.66;4235516;28;20309;-66
2024/01/11 00:25:04;;;;;;;135.00;39.73;;;;;;;-7.89;96.74;100937.69;4227138;28;23002;-64
2024/01/11 00:27:31;;;;;;;143.03;36.50;;;;;;;-7.87;96.49;100933.28;4238733;28;20242;-61
2024/01/11 00:29:57;;;;;;;148.37;42.90;;;;;;;-8.02;97.29;100921.19;4221475;28;24135;-63
2024/01/11 00:32:24;;;;;;;154.83;41.93;;;;;;;-8.00;97.04;100927.31;4238158;28;20261;-62
2024/01/11 00:34:51;;;;;;;142.13;39.00;;;;;;;-7.87;97.11;100929.78;4200954;28;20801;-64
2024/01/11 00:37:17;;;;;;;114.13;36.33;;;;;;;-7.96;97.19;100939.50;4231141;28;20234;-65
2024/01/11 00:39:44;;;;;;;142.77;38.87;;;;;;;-7.87;96.88;100935.03;4241387;28;20240;-65
2024/01/11 00:42:10;;;;;;;128.60;37.93;;;;;;;-7.89;96.91;100928.94;4239864;28;20252;-65
2024/01/11 00:44:37;;;;;;;153.13;43.63;;;;;;;-8.03;97.64;100922.06;4236658;28;20234;-65
2024/01/11 00:47:04;;;;;;;124.93;36.30;;;;;;;-7.87;97.53;100935.03;4232122;28;20234;-64
2024/01/11 00:49:30;;;;;;;127.07;38.57;;;;;;;-7.94;97.12;100950.03;4237210;28;20289;-68
2024/01/11 00:51:57;;;;;;;142.63;42.47;;;;;;;-7.98;97.39;100956.19;4235685;28;20234;-66
2024/01/11 00:54:24;;;;;;;135.63;36.80;;;;;;;-7.84;96.85;100946.38;4236011;28;20263;-64
2024/01/11 00:56:51;;;;;;;124.60;36.70;;;;;;;-7.84;96.91;100948.16;4233030;28;20297;-65
2024/01/11 00:59:18;;;;;;;126.90;35.37;;;;;;;-7.85;97.16;100923.63;4239016;28;20314;-64
2024/01/11 01:01:48;;;;;;;137.13;39.80;;;;;;;-8.08;98.03;100923.03;4236236;28;20222;-64
2024/01/11 01:04:15;;;;;;;127.17;33.67;;;;;;;-8.06;98.58;100911.63;4240478;28;20321;-66
2024/01/11 01:06:42;;;;;;;127.03;34.63;;;;;;;-8.06;99.18;100911.63;4231244;28;20443;-61
2024/01/11 01:09:09;;;;;;;124.50;33.37;;;;;;;-8.07;99.22;100920.38;4243377;28;20235;-64
2024/01/11 01:11:35;;;;;;;98.80;29.70;;;;;;;-7.87;99.31;100929.78;4251137;28;21435;-67
2024/01/11 01:14:02;;;;;;;111.33;31.23;;;;;;;-7.74;98.57;100922.63;4234411;28;20240;-63
2024/01/11 01:16:29;;;;;;;117.77;31.87;;;;;;;-7.91;99.09;100920.22;4235023;28;20245;-64
2024/01/11 01:18:55;;;;;;;122.57;32.27;;;;;;;-7.92;99.41;100924.56;4236369;28;20235;-68
2024/01/11 01:21:22;;;;;;;113.90;29.53;;;;;;;-7.75;99.64;100916.50;4235241;28;25673;-65
2024/01/11 01:23:48;;;;;;;116.30;33.57;;;;;;;-7.84;99.90;100921.88;4231832;28;20243;-63
2024/01/11 01:26:15;;;;;;;119.63;33.83;;;;;;;-7.84;100.00;100914.00;4234800;28;20235;-64
2024/01/11 01:28:42;;;;;;;95.80;26.80;;;;;;;-7.75;100.00;100897.22;4241673;28;20230;-66
2024/01/11 01:31:09;;;;;;;91.10;25.37;;;;;;;-7.66;99.52;100908.47;4234745;28;20231;-63
2024/01/11 01:33:36;;;;;;;89.13;24.90;;;;;;;-7.53;99.21;100943.38;4247385;28;20670;-64
2024/01/11 01:36:03;;;;;;;105.23;28.13;;;;;;;-7.51;99.06;100936.34;4240073;28;20445;-62
2024/01/11 01:38:30;;;;;;;100.33;31.37;;;;;;;-7.63;99.27;100923.38;4239777;28;22341;-64
2024/01/11 01:40:57;;;;;;;99.20;26.73;;;;;;;-7.71;100.00;100896.31;4251520;28;20318;-66
2024/01/11 01:43:24;;;;;;;96.33;26.73;;;;;;;-7.69;100.00;100902.41;4240732;28;20411;-65
2024/01/11 01:45:51;;;;;;;90.63;27.87;;;;;;;-7.70;100.00;100917.31;4239217;28;20242;-64
2024/01/11 01:48:17;;;;;;;86.43;27.50;;;;;;;-7.66;100.00;100919.00;4234475;28;20236;-65
2024/01/11 01:50:50;;;;;;;103.67;31.70;;;;;;;-7.67;100.00;100903.25;4232897;28;20255;-62
2024/01/11 01:53:20;;;;;;;108.30;32.03;;;;;;;-7.64;100.00;100903.22;4228916;28;20226;-64
2024/01/11 01:55:48;;;;;;;99.40;27.67;;;;;;;-7.53;100.00;100914.44;4243884;28;20239;-65
2024/01/11 01:58:17;;;;;;;90.40;24.87;;;;;;;-7.51;100.00;100907.41;4251772;28;20580;-64
2024/01/11 02:00:45;;;;;;;91.07;27.20;;;;;;;-7.55;100.00;100913.59;4236352;28;25080;-64
2024/01/11 02:03:14;;;;;;;84.80;25.07;;;;;;;-7.45;100.00;100922.25;4238769;28;20509;-66
2024/01/11 02:05:42;;;;;;;87.63;23.93;;;;;;;-7.47;100.00;100903.00;4239040;28;20234;-64
2024/01/11 02:08:15;;;;;;;90.00;27.00;;;;;;;-7.56;100.00;100922.41;4245873;28;20225;-63
2024/01/11 02:10:42;;;;;;;95.97;26.37;;;;;;;-7.43;100.00;100917.81;4236961;28;20230;-63
2024/01/11 02:13:09;;;;;;;88.77;24.13;;;;;;;-7.14;100.00;100913.03;4232662;28;20276;-62
2024/01/11 02:15:36;;;;;;;68.27;19.67;;;;;;;-7.34;100.00;100886.13;4222995;28;21584;-63
2024/01/11 02:18:03;;;;;;;94.43;25.90;;;;;;;-7.36;100.00;100895.81;4237823;28;20284;-66
2024/01/11 02:20:31;;;;;;;90.40;25.50;;;;;;;-7.39;100.00;100902.88;4230995;28;20230;-65
2024/01/11 02:23:04;;;;;;;97.60;26.23;;;;;;;-7.31;100.00;100914.16;4237751;28;20229;-66
2024/01/11 02:25:30;;;;;;;88.43;25.27;;;;;;;-7.36;100.00;100887.06;4235106;28;20354;-62
2024/01/11 02:27:57;;;;;;;78.83;25.40;;;;;;;-7.46;100.00;100891.59;4243600;28;20237;-64
2024/01/11 02:30:23;;;;;;;68.23;20.20;;;;;;;-7.26;100.00;100891.31;4228500;28;22454;-63
2024/01/11 02:32:50;;;;;;;83.20;21.73;;;;;;;-7.32;100.00;100902.78;4236046;28;22770;-62
2024/01/11 02:35:18;;;;;;;93.27;24.67;;;;;;;-7.38;100.00;100888.81;4247505;28;22057;-66
2024/01/11 02:37:46;;;;;;;84.97;23.70;;;;;;;-7.41;100.00;100892.38;4243206;28;20595;-65
2024/01/11 02:40:13;;;;;;;87.47;25.43;;;;;;;-7.42;100.00;100868.75;4234508;28;20289;-66
2024/01/11 02:42:41;;;;;;;92.73;26.07;;;;;;;-7.45;100.00;100887.19;4246862;28;20405;-64
2024/01/11 02:45:07;;;;;;;109.90;26.90;;;;;;;-7.44;100.00;100876.66;4233541;28;20586;-64
2024/01/11 02:47:34;;;;;;;101.53;25.10;;;;;;;-7.39;100.00;100881.81;4244056;28;20431;-67
2024/01/11 02:50:01;;;;;;;110.93;27.00;;;;;;;-7.32;100.00;100894.88;4233682;28;25564;-64
2024/01/11 02:52:27;;;;;;;104.33;27.70;;;;;;;-7.39;100.00;100889.72;4248960;28;20374;-63
2024/01/11 02:54:55;;;;;;;98.50;26.20;;;;;;;-7.40;100.00;100873.09;4233937;28;20238;-65
2024/01/11 02:57:21;;;;;;;101.83;24.97;;;;;;;-7.27;100.00;100878.16;4236385;28;21165;-63
2024/01/11 02:59:49;;;;;;;106.30;27.70;;;;;;;-7.34;100.00;100896.66;4229218;28;20309;-66
2024/01/11 03:02:16;;;;;;;73.20;20.13;;;;;;;-7.40;100.00;100885.38;4237762;28;20242;-66
2024/01/11 03:04:43;;;;;;;112.10;26.50;;;;;;;-7.27;100.00;100871.13;4239755;28;23432;-65
2024/01/11 03:07:09;;;;;;;91.03;25.80;;;;;;;-7.25;100.00;100877.22;4238653;28;20400;-64
2024/01/11 03:09:36;;;;;;;112.53;26.37;;;;;;;-7.33;100.00;100863.34;4241714;28;20308;-65
2024/01/11 03:12:03;;;;;;;123.27;31.87;;;;;;;-7.54;100.00;100846.97;4234153;28;20589;-63
2024/01/11 03:14:29;;;;;;;106.57;27.40;;;;;;;-7.48;100.00;100862.66;4242719;28;20314;-63
2024/01/11 03:16:56;;;;;;;116.10;26.33;;;;;;;-7.29;100.00;100862.41;4240242;28;23071;-67
2024/01/11 03:19:23;;;;;;;122.30;33.60;;;;;;;-7.44;100.00;100860.00;4265052;28;20246;-63
2024/01/11 03:21:49;;;;;;;113.57;27.67;;;;;;;-7.32;100.00;100862.44;4246750;28;20241;-66
2024/01/11 03:24:16;;;;;;;107.23;27.40;;;;;;;-7.31;100.00;100866.81;4245371;28;22023;-65
2024/01/11 03:26:42;;;;;;;114.50;29.77;;;;;;;-7.33;100.00;100855.47;4244546;28;20310;-64
2024/01/11 03:29:09;;;;;;;115.27;27.83;;;;;;;-7.38;100.00;100834.47;4255747;28;20901;-63
2024/01/11 03:31:37;;;;;;;131.67;31.13;;;;;;;-7.43;100.00;100840.69;4246914;28;21109;-64
2024/01/11 03:34:04;;;;;;;113.00;31.87;;;;;;;-7.48;100.00;100825.84;4242947;28;20976;-67
2024/01/11 03:36:31;;;;;;;120.07;31.87;;;;;;;-7.40;100.00;100814.38;4246906;28;20565;-66
2024/01/11 03:38:57;;;;;;;135.43;30.23;;;;;;;-7.43;100.00;100788.09;4230963;28;20511;-62
2024/01/11 03:41:24;;;;;;;135.40;32.03;;;;;;;-7.44;100.00;100794.25;4250423;28;21955;-66
2024/01/11 03:43:50;;;;;;;122.90;32.73;;;;;;;-7.42;100.00;100795.09;4242415;28;20230;-64
2024/01/11 03:46:17;;;;;;;137.30;37.03;;;;;;;-7.49;100.00;100782.06;4255282;28;23542;-65
2024/01/11 03:48:43;;;;;;;114.97;30.00;;;;;;;-7.44;100.00;100778.47;4241370;28;20246;-64
2024/01/11 03:51:10;;;;;;;115.97;31.97;;;;;;;-7.45;100.00;100766.22;4244963;28;20638;-64
2024/01/11 03:53:37;;;;;;;134.93;37.33;;;;;;;-7.52;100.00;100754.94;4253504;28;20225;-66
2024/01/11 03:56:04;;;;;;;124.07;33.40;;;;;;;-7.52;100.00;100761.06;4246058;28;20331;-68
2024/01/11 03:58:31;;;;;;;118.67;33.27;;;;;;;-7.48;100.00;100767.13;4241679;28;20474;-65
2024/01/11 04:00:59;;;;;;;140.20;36.27;;;;;;;-7.48;100.00;100768.00;4244544;28;21686;-62
2024/01/11 04:03:26;;;;;;;128.37;34.53;;;;;;;-7.48;100.00;100759.25;4244315;28;21173;-64
2024/01/11 04:05:52;;;;;;;145.07;38.07;;;;;;;-7.52;100.00;100762.84;4240405;28;20427;-63
2024/01/11 04:08:20;;;;;;;133.47;35.53;;;;;;;-7.48;100.00;100769.75;4249522;28;20273;-63
2024/01/11 04:10:46;;;;;;;129.70;32.70;;;;;;;-7.49;100.00;100768.91;4245723;28;20593;-67
2024/01/11 04:13:13;;;;;;;144.63;31.77;;;;;;;-7.42;100.00;100768.81;4239049;28;21584;-66
2024/01/11 04:15:39;;;;;;;151.57;35.37;;;;;;;-7.33;100.00;100755.50;4244655;28;22200;-64
2024/01/11 04:18:06;;;;;;;144.63;37.60;;;;;;;-7.54;100.00;100746.22;4245363;28;20238;-65
2024/01/11 04:20:34;;;;;;;140.67;37.27;;;;;;;-7.46;100.00;100764.47;4243795;28;23120;-63
2024/01/11 04:23:00;;;;;;;122.23;32.10;;;;;;;-7.44;100.00;100771.47;4242284;28;20242;-64
2024/01/11 04:25:27;;;;;;;160.20;39.27;;;;;;;-7.45;100.00;100768.84;4243560;28;20378;-64
2024/01/11 04:27:53;;;;;;;143.30;33.77;;;;;;;-7.43;100.00;100769.69;4250946;28;20230;-66
2024/01/11 04:30:20;;;;;;;136.30;34.43;;;;;;;-7.40;100.00;100767.03;4245743;28;22934;-65
2024/01/11 04:32:47;;;;;;;138.53;32.53;;;;;;;-7.40;100.00;100762.63;4246664;28;20242;-63
2024/01/11 04:35:13;;;;;;;142.40;33.13;;;;;;;-7.38;100.00;100774.00;4243452;28;20230;-66
2024/01/11 04:37:40;;;;;;;162.03;37.03;;;;;;;-7.34;100.00;100790.59;4241868;28;20974;-65
2024/01/11 04:40:07;;;;;;;165.40;41.80;;;;;;;-7.44;100.00;100781.09;4250426;28;20324;-61
2024/01/11 04:42:34;;;;;;;153.57;36.27;;;;;;;-7.37;100.00;100785.38;4240565;28;22274;-64
2024/01/11 04:45:00;;;;;;;146.60;35.47;;;;;;;-7.39;100.00;100772.25;4244305;28;21060;-63
2024/01/11 04:47:27;;;;;;;169.77;39.37;;;;;;;-7.38;100.00;100767.84;4245089;28;20359;-62
2024/01/11 04:49:55;;;;;;;166.70;39.57;;;;;;;-7.38;100.00;100760.84;4243329;28;20233;-66
2024/01/11 04:52:21;;;;;;;149.33;37.43;;;;;;;-7.37;100.00;100773.09;4242591;28;20237;-62
2024/01/11 04:54:48;;;;;;;155.57;39.43;;;;;;;-7.36;100.00;100773.97;4245849;28;21538;-63
2024/01/11 04:57:14;;;;;;;168.30;36.43;;;;;;;-7.32;100.00;100767.75;4248076;28;20240;-63
2024/01/11 04:59:41;;;;;;;160.60;32.93;;;;;;;-7.30;100.00;100768.59;4244162;28;20233;-66
2024/01/11 05:02:08;;;;;;;129.30;31.90;;;;;;;-7.28;100.00;100779.06;4244253;28;20226;-64
2024/01/11 05:04:35;;;;;;;149.93;34.47;;;;;;;-7.19;100.00;100774.56;4248756;28;20296;-60
2024/01/11 05:07:01;;;;;;;135.47;33.83;;;;;;;-7.14;100.00;100770.97;4242578;28;20659;-66
2024/01/11 05:09:28;;;;;;;139.60;35.33;;;;;;;-7.20;100.00;100758.78;4241723;28;21736;-67
2024/01/11 05:11:55;;;;;;;163.90;36.77;;;;;;;-7.24;100.00;100752.69;4256550;28;20234;-66
2024/01/11 05:14:21;;;;;;;145.30;31.70;;;;;;;-7.18;100.00;100747.34;4242742;28;22172;-66
2024/01/11 05:16:48;;;;;;;158.47;37.27;;;;;;;-7.16;100.00;100745.53;4253070;28;20226;-63
2024/01/11 05:19:14;;;;;;;136.17;29.50;;;;;;;-7.04;100.00;100747.09;4245259;28;20233;-62
2024/01/11 05:21:41;;;;;;;144.23;34.97;;;;;;;-7.15;100.00;100735.91;4242431;28;20280;-64
2024/01/11 05:24:07;;;;;;;133.80;30.90;;;;;;;-7.07;100.00;100722.59;4244638;28;21706;-64
2024/01/11 05:26:37;;;;;;;150.40;36.50;;;;;;;-7.09;100.00;100719.13;4257820;28;21747;-61
2024/01/11 05:29:06;;;;;;;127.80;34.77;;;;;;;-7.09;100.00;100722.63;4245927;28;20406;-65
2024/01/11 05:31:33;;;;;;;115.60;27.63;;;;;;;-7.00;100.00;100718.94;4249181;28;20231;-61
2024/01/11 05:33:59;;;;;;;115.47;29.17;;;;;;;-6.97;100.00;100713.66;4257960;28;20626;-62
2024/01/11 05:36:26;;;;;;;113.77;29.23;;;;;;;-6.95;100.00;100713.59;4241108;28;20316;-64
2024/01/11 05:38:53;;;;;;;117.67;28.57;;;;;;;-6.84;100.00;100716.91;4239932;28;20256;-66
2024/01/11 05:41:20;;;;;;;111.10;27.23;;;;;;;-6.90;100.00;100712.63;4240287;28;21150;-65
2024/01/11 05:43:46;;;;;;;106.43;26.13;;;;;;;-6.85;100.00;100709.91;4238738;28;20308;-68
2024/01/11 05:46:13;;;;;;;107.00;26.77;;;;;;;-6.87;100.00;100704.66;4249266;28;22207;-64
2024/01/11 05:48:39;;;;;;;115.03;30.03;;;;;;;-6.88;100.00;100681.88;4237203;28;21743;-63
2024/01/11 05:51:08;;;;;;;106.90;27.43;;;;;;;-6.91;100.00;100681.94;4243639;28;22829;-62
2024/01/11 05:53:35;;;;;;;112.40;29.23;;;;;;;-6.93;100.00;100691.63;4247985;28;20632;-64
2024/01/11 05:56:08;;;;;;;115.80;27.13;;;;;;;-6.96;100.00;100689.06;4251029;28;20690;-64
2024/01/11 05:58:36;;;;;;;96.60;23.87;;;;;;;-6.88;100.00;100684.53;4236117;28;20470;-62
2024/01/11 06:01:03;;;;;;;108.30;26.73;;;;;;;-6.87;100.00;100682.75;4243456;28;20226;-63
2024/01/11 06:03:33;;;;;;;115.73;28.50;;;;;;;-6.88;100.00;100681.00;4248671;28;20340;-64
2024/01/11 06:06:01;;;;;;;118.07;30.43;;;;;;;-6.93;100.00;100678.47;4227989;28;20239;-66
2024/01/11 06:08:30;;;;;;;116.23;29.47;;;;;;;-6.94;100.00;100674.09;4240429;28;20234;-64
2024/01/11 06:10:57;;;;;;;89.00;25.53;;;;;;;-6.85;100.00;100667.78;4246495;28;23550;-64
2024/01/11 06:13:24;;;;;;;123.13;28.13;;;;;;;-6.88;100.00;100671.34;4253584;28;23142;-61
2024/01/11 06:15:50;;;;;;;105.97;29.23;;;;;;;-6.89;100.00;100663.47;4255713;28;20266;-65
2024/01/11 06:18:17;;;;;;;98.87;25.93;;;;;;;-6.83;100.00;100667.75;4244864;28;24532;-67
2024/01/11 06:20:44;;;;;;;92.47;24.43;;;;;;;-6.81;100.00;100671.22;4251045;28;20581;-60
2024/01/11 06:23:10;;;;;;;90.80;24.83;;;;;;;-6.83;100.00;100660.72;4244676;28;20239;-62
2024/01/11 06:25:37;;;;;;;90.70;23.80;;;;;;;-6.82;100.00;100656.34;4243734;28;20381;-62
2024/01/11 06:28:04;;;;;;;92.03;22.73;;;;;;;-6.77;100.00;100659.72;4244439;28;20238;-66
2024/01/11 06:30:30;;;;;;;102.90;24.73;;;;;;;-6.75;100.00;100643.00;4242877;28;20253;-60
2024/01/11 06:32:57;;;;;;;87.60;25.17;;;;;;;-6.76;100.00;100645.66;4259363;28;25496;-62
2024/01/11 06:35:24;;;;;;;87.63;21.47;;;;;;;-6.74;100.00;100646.50;4238756;28;20226;-62
2024/01/11 06:37:50;;;;;;;80.17;21.90;;;;;;;-6.69;100.00;100648.16;4243587;28;21638;-64
2024/01/11 06:40:19;;;;;;;76.90;23.77;;;;;;;-6.68;100.00;100641.97;4257481;28;20858;-63
2024/01/11 06:42:46;;;;;;;85.13;22.87;;;;;;;-6.63;100.00;100641.88;4247806;28;20634;-64
2024/01/11 06:45:13;;;;;;;77.50;22.10;;;;;;;-6.62;100.00;100633.06;4239284;28;20297;-65
2024/01/11 06:47:39;;;;;;;82.40;25.83;;;;;;;-6.61;100.00;100624.28;4247739;28;20237;-65
2024/01/11 06:50:08;;;;;;;73.17;19.30;;;;;;;-6.51;100.00;100630.19;4246710;28;22899;-64
2024/01/11 06:52:35;;;;;;;68.43;17.87;;;;;;;-6.48;100.00;100635.41;4238229;28;25596;-66
2024/01/11 06:55:02;;;;;;;66.97;20.00;;;;;;;-6.46;100.00;100644.16;4244960;28;21521;-69
2024/01/11 06:57:28;;;;;;;79.80;21.77;;;;;;;-6.47;100.00;100639.78;4249586;28;20379;-66
2024/01/11 06:59:55;;;;;;;67.87;19.23;;;;;;;-6.43;100.00;100649.34;4249713;28;20284;-69
2024/01/11 07:02:22;;;;;;;95.37;21.90;;;;;;;-6.44;100.00;100637.06;4264075;28;22190;-66
2024/01/11 07:04:49;;;;;;;111.50;24.70;;;;;;;-6.41;100.00;100633.50;4259423;28;21146;-66
2024/01/11 07:07:15;;;;;;;88.20;22.10;;;;;;;-6.42;100.00;100632.63;4271944;28;20329;-67
2024/01/11 07:09:42;;;;;;;88.40;19.50;;;;;;;-6.42;100.00;100623.88;4249486;28;20234;-68
2024/01/11 07:12:09;;;;;;;85.20;19.80;;;;;;;-6.28;100.00;100631.44;4259488;28;22223;-68
2024/01/11 07:14:36;;;;;;;96.37;21.73;;;;;;;-6.21;100.00;100631.28;4261121;28;20600;-67
2024/01/11 07:17:03;;;;;;;94.03;20.70;;;;;;;-6.22;100.00;100621.66;4249963;28;20420;-68
2024/01/11 07:19:30;;;;;;;97.00;22.40;;;;;;;-6.28;100.00;100608.63;4267312;28;20233;-65
2024/01/11 07:21:57;;;;;;;97.13;21.20;;;;;;;-6.23;100.00;100611.16;4279952;28;20591;-63
2024/01/11 07:24:25;;;;;;;96.77;24.60;;;;;;;-6.26;100.00;100617.31;4257047;28;20371;-66
2024/01/11 07:26:51;;;;;;;96.80;23.03;;;;;;;-6.21;100.00;100614.59;4227718;28;20439;-65
2024/01/11 07:29:18;;;;;;;96.90;23.47;;;;;;;-6.16;100.00;100603.94;4260914;28;21572;-65
2024/01/11 07:31:44;;;;;;;91.47;20.90;;;;;;;-6.18;100.00;100622.44;4257354;28;21088;-65
2024/01/11 07:34:11;;;;;;;121.70;25.20;;;;;;;-6.14;100.00;100621.44;4260437;28;20234;-64
2024/01/11 07:36:38;;;;;;;89.10;20.93;;;;;;;-6.11;100.00;100610.84;4253653;28;22185;-68
2024/01/11 07:39:05;;;;;;;108.80;26.10;;;;;;;-6.15;100.00;100592.50;4252840;28;20234;-67
2024/01/11 07:41:32;;;;;;;108.87;24.97;;;;;;;-6.10;100.00;100612.59;4247060;28;20260;-68
2024/01/11 07:43:59;;;;;;;126.60;28.13;;;;;;;-6.09;100.00;100606.41;4245346;28;20234;-63
2024/01/11 07:46:26;;;;;;;84.23;22.53;;;;;;;-6.00;100.00;100599.19;4256185;28;20455;-63
2024/01/11 07:49:05;;;;;;;115.00;25.77;;;;;;;-6.05;100.00;100613.31;4257863;28;21565;-64
2024/01/11 07:51:33;;;;;;;108.93;23.33;;;;;;;-6.00;100.00;100610.59;4248542;28;20289;-65
2024/01/11 07:53:59;;;;;;;111.93;24.10;;;;;;;-5.99;100.00;100614.06;4266674;28;21717;-67
2024/01/11 07:56:26;;;;;;;131.13;25.37;;;;;;;-5.89;100.00;100626.09;4252359;28;20233;-64
2024/01/11 07:58:53;;;;;;;127.43;27.73;;;;;;;-5.93;100.00;100627.09;4239183;28;20307;-66
2024/01/11 08:01:20;;;;;;;113.77;24.90;;;;;;;-5.84;100.00;100629.47;4246992;28;20619;-64
2024/01/11 08:03:47;;;;;;;130.77;26.80;;;;;;;-5.86;100.00;100623.41;4248880;28;22902;-64
2024/01/11 08:06:14;;;;;;;125.93;26.57;;;;;;;-5.85;100.00;100614.56;4260683;28;20404;-65
2024/01/11 08:08:41;;;;;;;127.73;25.73;;;;;;;-5.77;100.00;100627.56;4248520;28;21702;-66
2024/01/11 08:11:08;;;;;;;110.30;24.60;;;;;;;-5.64;100.00;100622.84;4236178;28;20625;-65
2024/01/11 08:13:37;;;;;;;104.23;23.03;;;;;;;-5.54;100.00;100628.75;4242038;28;20237;-64
2024/01/11 08:16:07;;;;;;;113.13;21.90;;;;;;;-5.64;100.00;100614.94;4252364;28;21171;-67
2024/01/11 08:18:34;;;;;;;124.50;24.57;;;;;;;-5.65;100.00;100626.38;4250981;28;20292;-68
2024/01/11 08:21:00;;;;;;;127.50;23.90;;;;;;;-5.58;100.00;100628.81;4253122;28;21092;-67
2024/01/11 08:23:27;;;;;;;117.40;24.73;;;;;;;-5.56;100.00;100626.16;4246138;28;20237;-65
2024/01/11 08:25:54;;;;;;;100.43;25.07;;;;;;;-5.54;100.00;100634.00;4250281;28;20497;-68
2024/01/11 08:28:22;;;;;;;114.37;23.93;;;;;;;-5.51;100.00;100632.16;4249927;28;21730;-67
2024/01/11 08:30:48;;;;;;;83.90;18.80;;;;;;;-5.44;100.00;100639.00;4231652;28;22034;-70
2024/01/11 08:33:15;;;;;;;117.73;24.80;;;;;;;-5.47;100.00;100619.75;4230909;28;20391;-67
2024/01/11 08:35:42;;;;;;;108.13;24.47;;;;;;;-5.42;100.00;100634.56;4247099;28;20416;-65
2024/01/11 08:38:09;;;;;;;127.73;28.63;;;;;;;-5.38;100.00;100626.56;4240980;28;20234;-67
2024/01/11 08:40:36;;;;;;;113.47;24.03;;;;;;;-5.42;100.00;100636.31;4245581;28;20310;-65
2024/01/11 08:43:03;;;;;;;124.17;24.27;;;;;;;-5.42;100.00;100637.19;4250356;28;20308;-64
2024/01/11 08:45:31;;;;;;;142.67;27.93;;;;;;;-5.32;100.00;100634.28;4225570;28;21516;-65
2024/01/11 08:47:57;;;;;;;141.83;27.10;;;;;;;-5.39;100.00;100638.88;4245529;28;20351;-65
2024/01/11 08:50:24;;;;;;;144.67;29.93;;;;;;;-5.40;100.00;100639.78;4241166;28;20272;-65
2024/01/11 08:52:55;;;;;;;127.43;27.00;;;;;;;-5.39;100.00;100632.72;4251053;28;23813;-67
2024/01/11 08:55:22;;;;;;;134.30;25.80;;;;;;;-5.30;100.00;100629.84;4222886;28;22485;-64
2024/01/11 08:57:49;;;;;;;142.80;27.97;;;;;;;-5.29;100.00;100623.66;4241916;28;21522;-65
2024/01/11 09:00:19;;;;;;;149.97;29.90;;;;;;;-5.35;100.00;100626.47;4248771;28;20239;-65
2024/01/11 09:02:46;;;;;;;125.93;26.17;;;;;;;-5.31;100.00;100621.09;4247385;28;21079;-64
2024/01/11 09:05:16;;;;;;;127.80;25.40;;;;;;;-5.27;100.00;100622.72;4251880;28;23450;-66
2024/01/11 09:07:43;;;;;;;126.20;26.63;;;;;;;-5.26;100.00;100627.09;4240840;28;23182;-65
2024/01/11 09:10:13;;;;;;;89.10;21.23;;;;;;;-5.19;100.00;100625.16;4242525;28;20242;-66
2024/01/11 09:12:40;;;;;;;101.67;22.40;;;;;;;-5.19;100.00;100622.53;4239073;28;20303;-64
2024/01/11 09:15:06;;;;;;;110.93;22.77;;;;;;;-5.19;100.00;100614.59;4252768;28;22709;-66
2024/01/11 09:17:33;;;;;;;120.80;27.23;;;;;;;-5.21;100.00;100605.84;4234755;28;20585;-65
2024/01/11 09:20:00;;;;;;;111.03;21.10;;;;;;;-5.12;100.00;100615.28;4248764;28;20230;-65
2024/01/11 09:22:27;;;;;;;123.17;24.97;;;;;;;-5.19;100.00;100601.41;4247721;28;20225;-65
2024/01/11 09:24:54;;;;;;;91.47;21.27;;;;;;;-5.12;100.00;100608.25;4237676;28;20348;-66
2024/01/11 09:27:22;;;;;;;106.07;22.20;;;;;;;-5.07;100.00;100594.03;4245759;28;20264;-68
2024/01/11 09:29:48;;;;;;;110.67;23.03;;;;;;;-4.97;100.00;100583.16;4252139;28;20307;-66
2024/01/11 09:32:20;;;;;;;80.40;19.40;;;;;;;-4.98;100.00;100586.72;4243096;28;20242;-65
2024/01/11 09:34:47;;;;;;;102.77;21.43;;;;;;;-4.93;100.00;100586.56;4241970;28;22910;-66
2024/01/11 09:37:14;;;;;;;94.40;20.03;;;;;;;-4.88;100.00;100576.75;4247453;28;21630;-65
2024/01/11 09:39:40;;;;;;;86.67;20.20;;;;;;;-4.69;100.00;100585.00;4243773;28;20229;-67
2024/01/11 09:42:12;;;;;;;93.23;21.43;;;;;;;-4.79;100.00;100589.66;4251575;28;20241;-67
2024/01/11 09:44:39;;;;;;;93.47;19.87;;;;;;;-4.74;100.00;100559.63;4246202;28;23028;-65
2024/01/11 09:47:10;;;;;;;85.33;20.37;;;;;;;-4.78;100.00;100553.56;4239267;28;20263;-63
2024/01/11 09:49:44;;;;;;;88.37;21.47;;;;;;;-4.78;100.00;100572.91;4238486;28;21128;-66
2024/01/11 09:52:13;;;;;;;106.77;23.27;;;;;;;-4.72;100.00;100550.75;4238868;28;20282;-65
2024/01/11 09:54:43;;;;;;;95.70;24.50;;;;;;;-4.75;100.00;100556.09;4244675;28;20407;-65
2024/01/11 09:57:09;;;;;;;88.63;21.73;;;;;;;-4.59;100.00;100553.88;4244014;28;20242;-63
2024/01/11 09:59:36;;;;;;;88.27;21.87;;;;;;;-4.50;100.00;100550.06;4243852;28;20226;-64
2024/01/11 10:02:05;;;;;;;84.37;21.43;;;;;;;-4.55;100.00;100558.13;4241086;28;20231;-63
2024/01/11 10:04:32;;;;;;;84.27;20.77;;;;;;;-4.56;100.00;100548.47;4241648;28;22931;-63
2024/01/11 10:07:02;;;;;;;92.97;21.00;;;;;;;-4.59;100.00;100537.13;4247079;28;20237;-63
2024/01/11 10:09:29;;;;;;;93.83;20.50;;;;;;;-4.63;100.00;100536.38;4252452;28;21899;-65
2024/01/11 10:11:55;;;;;;;94.13;21.47;;;;;;;-4.53;100.00;100531.69;4234225;28;20235;-65
2024/01/11 10:14:22;;;;;;;77.10;18.60;;;;;;;-4.55;100.00;100537.00;4238717;28;20229;-64
2024/01/11 10:16:49;;;;;;;91.00;20.50;;;;;;;-4.50;100.00;100540.38;4243536;28;21549;-64
2024/01/11 10:19:16;;;;;;;90.67;21.67;;;;;;;-4.48;100.00;100538.53;4247677;28;20239;-66
2024/01/11 10:21:43;;;;;;;83.63;21.13;;;;;;;-4.40;100.00;100535.66;4242405;28;20299;-65
2024/01/11 10:24:16;;;;;;;94.43;22.10;;;;;;;-4.38;100.00;100549.66;4238805;28;20233;-65
2024/01/11 10:26:43;;;;;;;79.27;21.30;;;;;;;-4.34;100.00;100546.03;4230220;28;20648;-62
2024/01/11 10:29:12;;;;;;;99.93;24.07;;;;;;;-4.37;100.00;100546.13;4247231;28;20324;-63
2024/01/11 10:31:40;;;;;;;88.63;21.20;;;;;;;-4.25;100.00;100542.22;4255047;28;20235;-64
2024/01/11 10:34:06;;;;;;;93.47;22.93;;;;;;;-4.33;100.00;100534.53;4249221;28;20237;-63
2024/01/11 10:36:33;;;;;;;99.13;25.67;;;;;;;-4.39;100.00;100540.03;4246962;28;21537;-64
2024/01/11 10:39:04;;;;;;;91.60;22.73;;;;;;;-4.33;100.00;100550.41;4245860;28;20226;-64
2024/01/11 10:41:38;;;;;;;109.63;24.73;;;;;;;-4.32;100.00;100544.22;4247526;28;21420;-64
2024/01/11 10:44:17;;;;;;;99.07;26.10;;;;;;;-4.32;100.00;100531.00;4224212;28;20234;-64
2024/01/11 10:46:45;;;;;;;99.47;24.23;;;;;;;-4.27;100.00;100532.59;4253386;28;20229;-64
2024/01/11 10:49:18;;;;;;;86.27;22.50;;;;;;;-4.24;100.00;100528.09;4251635;28;20246;-63
2024/01/11 10:51:52;;;;;;;118.00;25.13;;;;;;;-4.08;100.00;100527.56;4249028;28;20226;-67
2024/01/11 10:54:22;;;;;;;97.27;21.63;;;;;;;-3.90;100.00;100524.31;4222012;28;21137;-67
2024/01/11 10:56:50;;;;;;;92.43;23.17;;;;;;;-3.97;100.00;100530.72;4254198;28;21812;-68